aviador You're here:

LDZD Decoded Metar

ZADAR in CROATIA
Report Time2017-10-24 02:00:00
UTC Time2017-10-24 02:22:16
Flight Rules vfr VFR
Wind340° at 16 Gusting to 26 kt
W.Decomp.*RWY 32: 15.2 kt HW 4.9 kt RCW
RWY 04: 7.5 kt HW 14.1 kt LCW
W.Rank340° ranks 27
Current wind is above 340° avg. (5.7)
Visibility9999 m
Phenomena:N/A
Clouds:Few 040 Hf
Expected CloudBase > 5,200 ft AGL from Temp-Dew spread
CeilingNone
Temp15°C (ISA +1)
Dew Point02°C (42% RH)
AAT7.6°C
QNH1012 hPa
Density Alt472 ft
Elevation276 ft
Report Wrong Elevation
Raw Report
METAR COR LDZD 240200Z 34016G26KT 290V030 9999 FEW040 15/02 Q1012 NOSIG=

Extra information for LDZD:More info

Metar Taf Metar & Taf Last 4 Metars F.Rules Stats Wind Profile Meteogram Temp Stats Airport Information Weather charts Add Link Nearby VenuesMetar ALERT Operation Metar Decoded Social comments